Time;durP1;ratioP1;P1;durP2;ratioP2;P2;SDS_P1;SDS_P2;PMS_P1;PMS_P2;Temp;Humidity;BMP_temperature;BMP_pressure;BME280_temperature;BME280_humidity;BME280_pressure;Samples;Min_cycle;Max_cycle;Signal;HPM_P1;HPM_P2
2023/04/14 00:01:18;;;;;;;;;;;5.10;99.90;;;;;;5022784;28;20381;-78
2023/04/14 00:03:46;;;;;;;;;;;5.10;99.90;;;;;;5033621;28;19932;-78
2023/04/14 00:06:13;;;;;;;;;;;5.00;99.90;;;;;;5033580;28;20018;-78
2023/04/14 00:08:39;;;;;;;;;;;4.90;99.90;;;;;;5029130;28;20445;-78
2023/04/14 00:11:06;;;;;;;;;;;4.90;99.90;;;;;;5022594;28;19932;-78
2023/04/14 00:13:33;;;;;;;;;;;4.80;99.90;;;;;;5033479;28;20374;-78
2023/04/14 00:16:00;;;;;;;;;;;4.70;99.90;;;;;;5045967;28;19929;-78
2023/04/14 00:18:27;;;;;;;;;;;4.70;99.90;;;;;;5030804;28;19936;-78
2023/04/14 00:20:55;;;;;;;;;;;4.70;99.90;;;;;;5015031;28;19980;-78
2023/04/14 00:23:21;;;;;;;;;;;4.70;99.90;;;;;;5018822;28;19929;-78
2023/04/14 00:25:49;;;;;;;;;;;4.70;99.90;;;;;;5018882;28;20012;-78
2023/04/14 00:28:16;;;;;;;;;;;4.60;99.90;;;;;;5010740;28;20016;-79
2023/04/14 00:30:45;;;;;;;;;;;4.60;99.90;;;;;;5019740;28;19933;-79
2023/04/14 00:33:12;;;;;;;;;;;4.60;99.90;;;;;;5037402;28;19979;-78
2023/04/14 00:35:38;;;;;;;;;;;4.50;99.90;;;;;;5019059;28;20363;-79
2023/04/14 00:38:06;;;;;;;;;;;4.40;99.90;;;;;;5010597;28;19934;-79
2023/04/14 00:40:33;;;;;;;;;;;4.30;99.90;;;;;;5014131;28;20299;-78
2023/04/14 00:43:00;;;;;;;;;;;4.40;99.90;;;;;;5023279;28;19928;-78
2023/04/14 00:45:27;;;;;;;;;;;4.30;99.90;;;;;;5035319;28;19933;-78
2023/04/14 00:47:54;;;;;;;;;;;4.30;99.90;;;;;;5053242;28;20192;-79
2023/04/14 00:50:21;;;;;;;;;;;4.20;99.90;;;;;;5043716;28;19918;-79
2023/04/14 00:52:49;;;;;;;;;;;4.20;99.90;;;;;;5025839;28;20394;-78
2023/04/14 00:55:18;;;;;;;;;;;4.30;99.90;;;;;;5023584;28;20264;-79
2023/04/14 00:57:45;;;;;;;;;;;4.20;99.90;;;;;;5018136;28;19956;-79
2023/04/14 01:00:12;;;;;;;;;;;4.20;99.90;;;;;;5013366;28;19964;-78
2023/04/14 01:02:40;;;;;;;;;;;4.20;99.90;;;;;;5018212;28;19929;-79
2023/04/14 01:05:07;;;;;;;;;;;4.20;99.90;;;;;;5010415;28;19933;-79
2023/04/14 01:07:34;;;;;;;;;;;4.10;99.90;;;;;;5037174;28;20262;-79
2023/04/14 01:10:02;;;;;;;;;;;4.10;99.90;;;;;;5039784;28;19948;-79
2023/04/14 01:12:39;;;;;;;;;;;4.00;99.90;;;;;;5020633;28;19925;-79
2023/04/14 01:15:09;;;;;;;;;;;4.00;99.90;;;;;;5028920;28;20181;-79
2023/04/14 01:17:38;;;;;;;;;;;3.90;99.90;;;;;;5014169;28;19936;-79
2023/04/14 01:20:08;;;;;;;;;;;3.90;99.90;;;;;;5017306;28;19929;-79
2023/04/14 01:22:37;;;;;;;;;;;3.80;99.90;;;;;;5015570;28;19929;-79
2023/04/14 01:25:12;;;;;;;;;;;3.70;99.90;;;;;;5018843;28;20136;-79
2023/04/14 01:27:43;;;;;;;;;;;3.70;99.90;;;;;;5012441;28;20295;-78
2023/04/14 01:30:21;;;;;;;;;;;3.70;99.90;;;;;;5024745;28;20030;-78
2023/04/14 01:32:51;;;;;;;;;;;3.70;99.90;;;;;;5019387;28;20385;-78
2023/04/14 01:35:20;;;;;;;;;;;3.80;99.90;;;;;;5013670;28;19925;-78
2023/04/14 01:37:48;;;;;;;;;;;3.80;99.90;;;;;;5011280;28;20041;-78
2023/04/14 01:40:16;;;;;;;;;;;3.80;99.90;;;;;;5042283;28;19925;-79
2023/04/14 01:42:46;;;;;;;;;;;3.80;99.90;;;;;;5036099;28;19958;-78
2023/04/14 01:45:16;;;;;;;;;;;3.70;99.90;;;;;;5030140;28;19975;-79
2023/04/14 01:47:44;;;;;;;;;;;3.70;99.90;;;;;;5022158;28;20397;-79
2023/04/14 01:50:13;;;;;;;;;;;3.70;99.90;;;;;;5007973;28;19933;-78
2023/04/14 01:52:40;;;;;;;;;;;3.70;99.90;;;;;;5021501;28;19926;-79
2023/04/14 01:55:08;;;;;;;;;;;3.60;99.90;;;;;;5013021;28;19997;-79
2023/04/14 01:57:36;;;;;;;;;;;3.60;99.90;;;;;;5037106;28;20402;-79
2023/04/14 02:00:04;;;;;;;;;;;3.60;99.90;;;;;;5030335;28;19929;-78
2023/04/14 02:02:41;;;;;;;;;;;3.50;99.90;;;;;;5017690;28;19936;-79
2023/04/14 02:05:09;;;;;;;;;;;3.50;99.90;;;;;;5024447;28;19979;-79
2023/04/14 02:07:38;;;;;;;;;;;3.50;99.90;;;;;;5030529;28;20366;-79
2023/04/14 02:10:06;;;;;;;;;;;3.50;99.90;;;;;;5042064;28;20446;-78
2023/04/14 02:12:33;;;;;;;;;;;3.50;99.90;;;;;;5030206;28;20353;-78
2023/04/14 02:15:01;;;;;;;;;;;3.50;99.90;;;;;;5019689;28;20346;-79
2023/04/14 02:17:28;;;;;;;;;;;3.50;99.90;;;;;;5041127;28;19936;-79
2023/04/14 02:19:54;;;;;;;;;;;3.50;99.90;;;;;;5017967;28;19936;-79
2023/04/14 02:22:21;;;;;;;;;;;3.90;99.90;;;;;;5022471;28;20405;-79
2023/04/14 02:24:50;;;;;;;;;;;3.50;99.90;;;;;;5017570;28;19948;-79
2023/04/14 02:27:18;;;;;;;;;;;3.50;99.90;;;;;;5020554;28;19925;-79
2023/04/14 02:29:47;;;;;;;;;;;3.40;99.90;;;;;;5027886;28;20032;-79
2023/04/14 02:32:19;;;;;;;;;;;3.40;99.90;;;;;;5046927;28;20119;-79
2023/04/14 02:34:50;;;;;;;;;;;3.30;99.90;;;;;;5017601;28;20131;-79
2023/04/14 02:37:20;;;;;;;;;;;3.30;99.90;;;;;;5009285;28;19933;-77
2023/04/14 02:39:50;;;;;;;;;;;3.30;99.90;;;;;;5042027;28;20207;-78
2023/04/14 02:42:22;;;;;;;;;;;3.30;99.90;;;;;;5016216;28;20451;-78
2023/04/14 02:44:50;;;;;;;;;;;3.30;99.90;;;;;;5013217;28;19925;-77
2023/04/14 02:47:22;;;;;;;;;;;3.30;99.90;;;;;;5017216;28;19926;-78
2023/04/14 02:49:50;;;;;;;;;;;3.30;99.90;;;;;;5012714;28;19933;-78
2023/04/14 02:52:20;;;;;;;;;;;3.30;99.90;;;;;;5015278;28;20464;-78
2023/04/14 02:54:49;;;;;;;;;;;3.20;99.90;;;;;;5025360;28;20378;-78
2023/04/14 02:57:17;;;;;;;;;;;3.20;99.90;;;;;;5029021;28;19933;-79
2023/04/14 02:59:48;;;;;;;;;;;3.20;99.90;;;;;;5027646;28;19929;-77
2023/04/14 03:02:17;;;;;;;;;;;3.20;99.90;;;;;;5025643;28;19935;-77
2023/04/14 03:04:47;;;;;;;;;;;3.20;99.90;;;;;;5033046;28;20441;-77
2023/04/14 03:07:29;;;;;;;;;;;3.20;99.90;;;;;;5026029;28;19944;-77
2023/04/14 03:09:55;;;;;;;;;;;3.10;99.90;;;;;;5025558;28;19948;-77
2023/04/14 03:12:24;;;;;;;;;;;3.10;99.90;;;;;;5015001;28;19938;-77
2023/04/14 03:14:52;;;;;;;;;;;3.10;99.90;;;;;;5017828;28;19929;-78
2023/04/14 03:17:20;;;;;;;;;;;3.20;99.90;;;;;;5024450;28;20387;-77
2023/04/14 03:19:49;;;;;;;;;;;3.20;99.90;;;;;;5025681;28;20377;-77
2023/04/14 03:22:16;;;;;;;;;;;3.10;99.90;;;;;;5019888;28;19936;-78
2023/04/14 03:24:44;;;;;;;;;;;3.10;99.90;;;;;;5025041;28;19936;-78
2023/04/14 03:27:13;;;;;;;;;;;3.10;99.90;;;;;;5026566;28;19929;-77
2023/04/14 03:29:42;;;;;;;;;;;3.10;99.90;;;;;;5025442;28;19931;-77
2023/04/14 03:32:11;;;;;;;;;;;3.10;99.90;;;;;;5033647;28;20032;-77
2023/04/14 03:34:41;;;;;;;;;;;3.10;99.90;;;;;;5040401;28;19913;-77
2023/04/14 03:37:08;;;;;;;;;;;3.10;99.90;;;;;;5050891;28;19940;-77
2023/04/14 03:39:37;;;;;;;;;;;3.10;99.90;;;;;;5056214;28;20496;-77
2023/04/14 03:42:06;;;;;;;;;;;3.10;99.90;;;;;;5049537;28;19956;-77
2023/04/14 03:44:35;;;;;;;;;;;3.10;99.90;;;;;;5041499;28;19945;-78
2023/04/14 03:47:02;;;;;;;;;;;3.00;99.90;;;;;;5014721;28;19925;-78
2023/04/14 03:49:33;;;;;;;;;;;3.00;99.90;;;;;;5017800;28;19968;-78
2023/04/14 03:52:02;;;;;;;;;;;3.00;99.90;;;;;;5023749;28;19936;-77
2023/04/14 03:57:05;;;;;;;;;;;3.00;99.90;;;;;;5033860;28;19925;-78
2023/04/14 03:59:33;;;;;;;;;;;3.00;99.90;;;;;;5019752;28;20426;-77
2023/04/14 04:02:01;;;;;;;;;;;3.00;99.90;;;;;;5033847;28;20358;-77
2023/04/14 04:04:29;;;;;;;;;;;3.00;99.90;;;;;;5033834;28;19976;-78
2023/04/14 04:06:58;;;;;;;;;;;2.90;99.90;;;;;;5024721;28;20351;-77
2023/04/14 04:09:26;;;;;;;;;;;2.80;99.90;;;;;;5013438;28;19930;-77
2023/04/14 04:11:53;;;;;;;;;;;2.80;99.90;;;;;;5031283;28;20444;-78
2023/04/14 04:14:22;;;;;;;;;;;2.80;99.90;;;;;;5033893;28;19926;-78
2023/04/14 04:16:50;;;;;;;;;;;2.80;99.90;;;;;;5033727;28;19979;-78
2023/04/14 04:19:19;;;;;;;;;;;2.80;99.90;;;;;;5033229;28;20016;-77
2023/04/14 04:21:48;;;;;;;;;;;2.70;99.90;;;;;;5033048;28;20335;-77
2023/04/14 04:24:18;;;;;;;;;;;2.70;99.90;;;;;;5032766;28;19925;-77
2023/04/14 04:26:45;;;;;;;;;;;2.70;99.90;;;;;;5032562;28;19925;-76
2023/04/14 04:29:13;;;;;;;;;;;2.70;99.90;;;;;;5034494;28;19929;-77
2023/04/14 04:31:40;;;;;;;;;;;2.60;99.90;;;;;;5033959;28;19932;-77
2023/04/14 04:34:07;;;;;;;;;;;2.60;99.90;;;;;;5033948;28;19932;-77
2023/04/14 04:36:42;;;;;;;;;;;2.50;99.90;;;;;;5035371;28;19925;-77
2023/04/14 04:39:10;;;;;;;;;;;2.50;99.90;;;;;;5034051;28;19925;-78
2023/04/14 04:41:41;;;;;;;;;;;2.60;99.90;;;;;;5031975;28;20697;-78
2023/04/14 04:44:09;;;;;;;;;;;2.60;99.90;;;;;;5033903;28;20006;-77
2023/04/14 04:46:44;;;;;;;;;;;2.70;99.90;;;;;;5032507;28;19925;-76
2023/04/14 04:49:11;;;;;;;;;;;2.80;99.90;;;;;;5030992;28;19929;-76
2023/04/14 04:51:38;;;;;;;;;;;2.90;99.90;;;;;;5031872;28;20027;-76
2023/04/14 04:54:05;;;;;;;;;;;3.00;99.90;;;;;;5033095;28;19983;-77
2023/04/14 04:56:32;;;;;;;;;;;3.00;99.90;;;;;;5034264;28;20676;-79
2023/04/14 04:59:01;;;;;;;;;;;3.10;99.90;;;;;;5032918;28;19939;-77
2023/04/14 05:01:28;;;;;;;;;;;3.10;99.90;;;;;;5032950;28;19960;-77
2023/04/14 05:03:55;;;;;;;;;;;3.10;99.90;;;;;;5031912;28;19939;-77
2023/04/14 05:06:22;;;;;;;;;;;3.20;99.90;;;;;;5031117;28;20358;-77
2023/04/14 05:08:50;;;;;;;;;;;3.20;99.90;;;;;;5033146;28;19979;-77
2023/04/14 05:11:17;;;;;;;;;;;3.30;99.90;;;;;;5032114;28;19979;-77
2023/04/14 05:13:44;;;;;;;;;;;3.30;99.90;;;;;;5033320;28;19948;-78
2023/04/14 05:16:13;;;;;;;;;;;3.30;99.90;;;;;;5032731;28;20577;-76
2023/04/14 05:18:40;;;;;;;;;;;3.40;99.90;;;;;;5031920;28;19937;-77
2023/04/14 05:21:09;;;;;;;;;;;3.50;99.90;;;;;;5032768;28;20266;-77
2023/04/14 05:23:36;;;;;;;;;;;3.60;99.90;;;;;;5031296;28;19993;-77
2023/04/14 05:26:04;;;;;;;;;;;3.70;99.90;;;;;;5033548;28;19929;-80
2023/04/14 05:28:31;;;;;;;;;;;3.80;99.90;;;;;;5031695;28;20392;-78
2023/04/14 05:30:58;;;;;;;;;;;4.00;99.90;;;;;;5031373;28;19925;-77
2023/04/14 05:33:26;;;;;;;;;;;4.10;99.90;;;;;;5033140;28;19925;-77
2023/04/14 05:35:53;;;;;;;;;;;4.30;99.90;;;;;;5035849;28;19929;-77
2023/04/14 05:38:20;;;;;;;;;;;4.40;99.90;;;;;;5041599;28;19913;-86
2023/04/14 05:40:48;;;;;;;;;;;4.90;99.90;;;;;;5041142;28;19913;-82
2023/04/14 05:43:16;;;;;;;;;;;5.80;99.90;;;;;;5038332;28;19925;-80
2023/04/14 05:45:45;;;;;;;;;;;6.80;99.90;;;;;;5043957;28;19948;-84
2023/04/14 05:48:13;;;;;;;;;;;7.90;99.90;;;;;;5039646;28;20376;-85
2023/04/14 05:50:41;;;;;;;;;;;9.00;99.90;;;;;;5034306;28;19976;-86
2023/04/14 05:53:10;;;;;;;;;;;10.20;99.90;;;;;;5035420;28;19979;-85
2023/04/14 05:55:39;;;;;;;;;;;11.30;99.90;;;;;;5031029;28;19940;-84
2023/04/14 05:58:06;;;;;;;;;;;12.20;99.90;;;;;;5034102;28;19929;-85
2023/04/14 06:00:33;;;;;;;;;;;13.10;99.90;;;;;;5034418;28;20303;-85
2023/04/14 06:03:00;;;;;;;;;;;13.90;99.90;;;;;;5018389;28;19942;-87
2023/04/14 06:05:27;;;;;;;;;;;14.80;99.90;;;;;;5034556;28;19929;-83
2023/04/14 06:07:56;;;;;;;;;;;15.70;99.90;;;;;;5036107;28;19929;-87
2023/04/14 06:10:23;;;;;;;;;;;16.40;99.90;;;;;;5036091;28;20012;-87
2023/04/14 06:12:50;;;;;;;;;;;17.00;99.90;;;;;;5034170;28;19955;-87
2023/04/14 06:15:17;;;;;;;;;;;17.50;99.90;;;;;;5033664;28;19932;-89
2023/04/14 06:17:46;;;;;;;;;;;18.10;99.90;;;;;;5031657;28;20016;-86
2023/04/14 06:20:13;;;;;;;;;;;18.90;99.90;;;;;;5033199;28;19936;-85
2023/04/14 06:22:41;;;;;;;;;;;19.40;99.90;;;;;;5033333;28;19929;-85
2023/04/14 06:25:10;;;;;;;;;;;19.90;99.90;;;;;;5033165;28;20311;-87
2023/04/14 06:27:39;;;;;;;;;;;20.30;99.90;;;;;;5018318;28;19937;-86
2023/04/14 06:30:07;;;;;;;;;;;20.70;99.90;;;;;;5032309;28;19925;-78
2023/04/14 06:32:34;;;;;;;;;;;21.10;99.90;;;;;;5030995;28;19933;-79
2023/04/14 06:35:03;;;;;;;;;;;21.40;99.90;;;;;;5024307;28;20312;-79
2023/04/14 06:37:30;;;;;;;;;;;21.70;99.90;;;;;;5034538;28;19929;-79
2023/04/14 06:39:57;;;;;;;;;;;22.10;99.90;;;;;;5041432;28;20277;-79
2023/04/14 06:42:26;;;;;;;;;;;22.50;99.90;;;;;;5045003;28;19960;-79
2023/04/14 06:44:53;;;;;;;;;;;22.90;99.90;;;;;;5035819;28;19929;-79
2023/04/14 06:47:20;;;;;;;;;;;23.40;99.90;;;;;;5035288;28;19944;-79
2023/04/14 06:49:47;;;;;;;;;;;23.70;99.90;;;;;;5033046;28;20363;-78
2023/04/14 06:52:14;;;;;;;;;;;24.10;99.90;;;;;;5030883;28;19925;-78
2023/04/14 06:54:42;;;;;;;;;;;24.20;99.90;;;;;;5031618;28;19933;-78
2023/04/14 06:57:09;;;;;;;;;;;24.50;99.90;;;;;;5030186;28;20031;-79
2023/04/14 06:59:40;;;;;;;;;;;24.80;99.90;;;;;;5028747;28;19933;-79
2023/04/14 07:02:08;;;;;;;;;;;25.10;99.90;;;;;;5561471;22;19950;-79
2023/04/14 07:04:35;;;;;;;;;;;25.40;99.90;;;;;;5038027;28;19940;-85
2023/04/14 07:07:02;;;;;;;;;;;25.80;99.90;;;;;;5052088;28;19928;-82
2023/04/14 07:09:29;;;;;;;;;;;26.10;99.90;;;;;;5050091;28;19929;-82
2023/04/14 07:11:56;;;;;;;;;;;26.20;99.90;;;;;;5035233;28;19999;-88
2023/04/14 07:14:27;;;;;;;;;;;26.30;99.80;;;;;;5034131;28;19929;-85
2023/04/14 07:16:56;;;;;;;;;;;26.40;96.00;;;;;;5038671;28;19921;-82
2023/04/14 07:19:23;;;;;;;;;;;26.50;96.30;;;;;;5038935;28;19925;-82
2023/04/14 07:21:52;;;;;;;;;;;26.60;95.90;;;;;;5039666;28;19948;-82
2023/04/14 07:24:19;;;;;;;;;;;26.90;96.20;;;;;;5039048;28;20399;-82
2023/04/14 07:26:46;;;;;;;;;;;27.10;94.60;;;;;;5038055;28;20257;-81
2023/04/14 07:29:13;;;;;;;;;;;27.30;94.50;;;;;;5036628;28;19929;-82
2023/04/14 07:31:40;;;;;;;;;;;27.50;93.40;;;;;;5035522;28;19955;-82
2023/04/14 07:34:09;;;;;;;;;;;27.40;93.00;;;;;;5052090;28;19932;-82
2023/04/14 07:36:36;;;;;;;;;;;27.70;92.40;;;;;;5034946;28;19925;-81
2023/04/14 07:39:03;;;;;;;;;;;27.90;91.90;;;;;;5036200;28;19917;-81
2023/04/14 07:41:31;;;;;;;;;;;28.00;91.00;;;;;;5034151;28;20001;-80
2023/04/14 07:43:58;;;;;;;;;;;28.00;89.40;;;;;;5033119;28;19929;-80
2023/04/14 07:46:26;;;;;;;;;;;27.80;87.70;;;;;;5033137;28;19929;-81
2023/04/14 07:48:53;;;;;;;;;;;27.60;87.80;;;;;;5034391;28;19925;-80
2023/04/14 07:51:21;;;;;;;;;;;27.50;87.30;;;;;;5035623;28;19936;-81
2023/04/14 07:53:49;;;;;;;;;;;27.60;87.20;;;;;;5035630;28;19933;-80
2023/04/14 07:56:16;;;;;;;;;;;27.50;86.70;;;;;;5035435;28;19929;-81
2023/04/14 07:58:43;;;;;;;;;;;27.60;86.50;;;;;;5036111;28;19933;-81
2023/04/14 08:01:10;;;;;;;;;;;27.80;85.70;;;;;;5035491;28;19929;-81
2023/04/14 08:03:40;;;;;;;;;;;27.80;85.10;;;;;;5036170;28;19957;-81
2023/04/14 08:06:07;;;;;;;;;;;27.70;83.10;;;;;;5036886;28;19925;-81
2023/04/14 08:08:37;;;;;;;;;;;27.50;81.90;;;;;;5037106;28;19983;-81
2023/04/14 08:11:05;;;;;;;;;;;27.30;82.60;;;;;;5037209;28;19928;-80
2023/04/14 08:13:32;;;;;;;;;;;27.20;82.00;;;;;;5034789;28;19988;-79
2023/04/14 08:15:59;;;;;;;;;;;27.20;82.60;;;;;;5034818;28;19937;-79
2023/04/14 08:18:26;;;;;;;;;;;27.10;82.70;;;;;;5036362;28;19933;-80
2023/04/14 08:20:53;;;;;;;;;;;27.00;83.10;;;;;;5034923;28;19925;-80
2023/04/14 08:23:21;;;;;;;;;;;26.80;78.90;;;;;;5036009;28;20383;-79
2023/04/14 08:25:49;;;;;;;;;;;26.00;78.50;;;;;;5036949;28;19933;-79
2023/04/14 08:28:16;;;;;;;;;;;25.60;79.70;;;;;;5037547;28;20036;-80
2023/04/14 08:30:43;;;;;;;;;;;25.20;79.40;;;;;;5038646;28;19925;-79
2023/04/14 08:33:13;;;;;;;;;;;24.50;78.70;;;;;;5036297;28;19975;-79
2023/04/14 08:35:51;;;;;;;;;;;24.20;81.10;;;;;;5039355;28;19929;-79
2023/04/14 08:38:19;;;;;;;;;;;24.40;83.60;;;;;;5037431;28;20392;-79
2023/04/14 08:40:47;;;;;;;;;;;24.60;83.60;;;;;;5037838;28;19925;-80
2023/04/14 08:43:16;;;;;;;;;;;24.60;82.50;;;;;;5036474;28;20638;-79
2023/04/14 08:45:43;;;;;;;;;;;24.50;82.40;;;;;;5036523;28;19956;-78
2023/04/14 08:48:11;;;;;;;;;;;24.50;82.90;;;;;;5037912;28;19929;-80
2023/04/14 08:50:44;;;;;;;;;;;24.40;83.10;;;;;;5037547;28;20020;-79
2023/04/14 08:53:12;;;;;;;;;;;24.40;82.00;;;;;;5038839;28;19929;-78
2023/04/14 08:55:40;;;;;;;;;;;24.20;81.60;;;;;;5038673;28;19933;-79
2023/04/14 08:58:09;;;;;;;;;;;23.80;81.60;;;;;;5055195;28;19928;-79
2023/04/14 09:00:38;;;;;;;;;;;23.60;82.80;;;;;;5038565;28;19925;-79
2023/04/14 09:03:05;;;;;;;;;;;23.70;82.90;;;;;;5038539;28;20392;-80
2023/04/14 09:05:32;;;;;;;;;;;23.90;81.50;;;;;;5037582;28;19913;-79
2023/04/14 09:07:59;;;;;;;;;;;23.70;79.70;;;;;;5036498;28;20005;-78
2023/04/14 09:10:29;;;;;;;;;;;23.30;79.00;;;;;;5036453;28;20569;-79
2023/04/14 09:12:56;;;;;;;;;;;22.90;77.60;;;;;;5052020;28;19952;-79
2023/04/14 09:15:26;;;;;;;;;;;22.20;76.20;;;;;;5036831;28;20403;-80
2023/04/14 09:17:55;;;;;;;;;;;21.20;76.50;;;;;;5036161;28;20059;-79
2023/04/14 09:20:22;;;;;;;;;;;20.70;78.20;;;;;;5038583;28;19929;-79
2023/04/14 09:22:49;;;;;;;;;;;20.20;77.60;;;;;;5036385;28;19941;-80
2023/04/14 09:25:16;;;;;;;;;;;19.90;78.20;;;;;;5053840;28;19936;-81
2023/04/14 09:27:43;;;;;;;;;;;19.80;80.60;;;;;;5054037;28;20090;-80
2023/04/14 09:30:10;;;;;;;;;;;19.80;82.30;;;;;;5037427;28;19932;-79
2023/04/14 09:32:38;;;;;;;;;;;20.00;83.10;;;;;;5035767;28;20551;-80
2023/04/14 09:35:08;;;;;;;;;;;20.10;82.70;;;;;;5052399;28;19971;-82
2023/04/14 09:37:42;;;;;;;;;;;19.90;80.50;;;;;;5052313;28;20450;-82
2023/04/14 09:40:10;;;;;;;;;;;19.10;78.70;;;;;;5037033;28;20364;-82
2023/04/14 09:42:38;;;;;;;;;;;18.40;79.50;;;;;;5037656;28;19929;-81
2023/04/14 09:45:05;;;;;;;;;;;17.90;79.80;;;;;;5037232;28;20343;-82
2023/04/14 09:47:32;;;;;;;;;;;17.50;80.30;;;;;;5035087;28;19925;-82
2023/04/14 09:50:01;;;;;;;;;;;17.00;81.10;;;;;;5036256;28;19945;-82
2023/04/14 09:52:39;;;;;;;;;;;16.50;82.10;;;;;;5040104;28;20133;-82
2023/04/14 09:55:08;;;;;;;;;;;15.90;83.50;;;;;;5038647;28;19952;-82
2023/04/14 09:57:51;;;;;;;;;;;15.60;84.20;;;;;;5038947;28;20020;-82
2023/04/14 10:00:23;;;;;;;;;;;15.60;85.00;;;;;;5062151;22;19939;-83
2023/04/14 10:02:54;;;;;;;;;;;15.70;85.70;;;;;;5030998;28;19983;-82
2023/04/14 10:05:22;;;;;;;;;;;15.70;85.20;;;;;;5029918;28;19933;-81
2023/04/14 10:07:50;;;;;;;;;;;15.60;84.80;;;;;;5028623;28;19947;-80
2023/04/14 10:10:17;;;;;;;;;;;15.30;84.70;;;;;;5029144;28;19929;-80
2023/04/14 10:12:44;;;;;;;;;;;15.30;85.60;;;;;;5036355;28;19933;-80
2023/04/14 10:15:11;;;;;;;;;;;15.40;85.50;;;;;;5030340;28;19929;-80
2023/04/14 10:17:39;;;;;;;;;;;15.50;85.80;;;;;;5021142;28;20567;-81
2023/04/14 10:20:06;;;;;;;;;;;15.60;86.00;;;;;;5038625;28;19967;-81
2023/04/14 10:22:38;;;;;;;;;;;14.90;85.10;;;;;;5051263;28;19925;-80
2023/04/14 10:25:07;;;;;;;;;;;15.70;86.50;;;;;;5051481;28;19936;-79
2023/04/14 10:27:34;;;;;;;;;;;15.70;85.30;;;;;;5046039;28;19925;-79
2023/04/14 10:30:01;;;;;;;;;;;15.70;84.70;;;;;;5037701;28;19929;-79
2023/04/14 10:32:30;;;;;;;;;;;15.70;84.60;;;;;;5032110;28;19936;-79
2023/04/14 10:35:00;;;;;;;;;;;15.80;84.70;;;;;;5027961;28;20019;-78
2023/04/14 10:37:27;;;;;;;;;;;15.70;84.30;;;;;;5026261;28;19940;-79
2023/04/14 10:39:55;;;;;;;;;;;15.70;85.00;;;;;;5023781;28;19983;-78
2023/04/14 10:42:23;;;;;;;;;;;15.70;84.00;;;;;;5021943;28;19933;-79
2023/04/14 10:45:02;;;;;;;;;;;15.70;84.30;;;;;;5023801;28;20070;-79
2023/04/14 10:47:28;;;;;;;;;;;15.70;85.10;;;;;;5022596;28;19970;-78
2023/04/14 10:49:57;;;;;;;;;;;15.90;84.00;;;;;;5020838;28;19937;-79
2023/04/14 10:52:33;;;;;;;;;;;16.00;82.90;;;;;;5544086;22;19925;-79
2023/04/14 10:55:06;;;;;;;;;;;16.10;82.70;;;;;;5034150;28;19929;-79
2023/04/14 10:57:39;;;;;;;;;;;16.30;82.50;;;;;;5032990;28;19940;-79
2023/04/14 11:00:20;;;;;;;;;;;16.50;82.80;;;;;;5032285;28;19933;-79
2023/04/14 11:02:54;;;;;;;;;;;16.60;82.30;;;;;;5021390;28;19929;-79
2023/04/14 11:05:21;;;;;;;;;;;17.00;81.70;;;;;;5031299;28;19940;-79
2023/04/14 11:07:51;;;;;;;;;;;16.80;79.20;;;;;;5025167;28;19935;-79
2023/04/14 11:10:28;;;;;;;;;;;16.90;80.20;;;;;;5025789;28;19964;-78
2023/04/14 11:12:57;;;;;;;;;;;17.00;79.00;;;;;;5022058;28;19925;-80
2023/04/14 11:15:24;;;;;;;;;;;17.00;79.10;;;;;;5043517;28;19922;-80
2023/04/14 11:17:50;;;;;;;;;;;17.10;78.60;;;;;;5036049;28;19935;-79
2023/04/14 11:20:17;;;;;;;;;;;17.10;79.20;;;;;;5052504;28;19913;-78
2023/04/14 11:22:45;;;;;;;;;;;17.10;79.10;;;;;;5035577;28;19913;-77
2023/04/14 11:25:13;;;;;;;;;;;17.30;79.20;;;;;;5022463;28;19940;-78
2023/04/14 11:27:40;;;;;;;;;;;17.50;79.90;;;;;;5023992;28;19929;-79
2023/04/14 11:30:09;;;;;;;;;;;17.80;80.10;;;;;;5016803;28;19925;-78
2023/04/14 11:32:46;;;;;;;;;;;18.10;79.40;;;;;;5017251;28;19929;-79
2023/04/14 11:35:13;;;;;;;;;;;18.30;79.70;;;;;;5026694;28;19970;-78
2023/04/14 11:37:40;;;;;;;;;;;18.50;79.80;;;;;;5037701;28;19956;-79
2023/04/14 11:40:08;;;;;;;;;;;18.70;79.00;;;;;;5037333;28;19925;-79
2023/04/14 11:42:35;;;;;;;;;;;19.00;78.10;;;;;;5016386;28;19968;-80
2023/04/14 11:45:02;;;;;;;;;;;19.10;77.70;;;;;;5033026;28;19964;-79
2023/04/14 11:47:30;;;;;;;;;;;19.00;77.30;;;;;;5023947;28;19925;-80
2023/04/14 11:50:01;;;;;;;;;;;18.90;75.30;;;;;;5014320;28;19933;-80
2023/04/14 11:52:27;;;;;;;;;;;18.70;74.80;;;;;;5023679;28;20349;-80
2023/04/14 11:54:54;;;;;;;;;;;18.50;75.30;;;;;;5024372;28;19929;-81
2023/04/14 11:57:21;;;;;;;;;;;18.40;75.50;;;;;;5015551;28;19929;-80
2023/04/14 11:59:48;;;;;;;;;;;18.30;75.30;;;;;;5017102;28;19968;-80
2023/04/14 12:02:15;;;;;;;;;;;18.50;76.50;;;;;;5031450;28;20383;-79
2023/04/14 12:04:44;;;;;;;;;;;18.70;76.20;;;;;;5029028;28;19940;-81
2023/04/14 12:07:11;;;;;;;;;;;18.90;75.40;;;;;;5029268;28;19926;-80
2023/04/14 12:09:40;;;;;;;;;;;19.10;74.20;;;;;;5031214;28;19925;-82
2023/04/14 12:12:08;;;;;;;;;;;19.30;73.30;;;;;;5036932;28;20401;-80
2023/04/14 12:14:37;;;;;;;;;;;19.50;73.60;;;;;;5036334;28;19925;-79
2023/04/14 12:17:03;;;;;;;;;;;19.70;73.20;;;;;;5037864;28;19925;-80
2023/04/14 12:19:30;;;;;;;;;;;19.90;72.60;;;;;;5035183;28;19956;-80
2023/04/14 12:21:58;;;;;;;;;;;20.00;72.90;;;;;;5034754;28;19929;-80
2023/04/14 12:24:32;;;;;;;;;;;20.20;73.40;;;;;;5028241;28;19925;-81
2023/04/14 12:26:59;;;;;;;;;;;20.40;72.40;;;;;;5026906;28;19936;-81
2023/04/14 12:29:26;;;;;;;;;;;20.40;70.40;;;;;;5027077;28;19952;-80
2023/04/14 12:31:53;;;;;;;;;;;20.40;69.60;;;;;;5022960;28;20333;-81
2023/04/14 12:34:24;;;;;;;;;;;20.30;69.70;;;;;;5028034;28;19940;-80
2023/04/14 12:36:52;;;;;;;;;;;20.40;70.50;;;;;;5021062;28;19926;-79
2023/04/14 12:39:20;;;;;;;;;;;20.60;70.00;;;;;;5032606;28;19936;-81
2023/04/14 12:41:47;;;;;;;;;;;20.70;69.00;;;;;;5029837;28;19929;-80
2023/04/14 12:44:18;;;;;;;;;;;20.90;70.00;;;;;;5026388;28;19980;-81
2023/04/14 12:46:47;;;;;;;;;;;21.10;70.20;;;;;;5030482;28;20538;-81
2023/04/14 12:49:30;;;;;;;;;;;21.30;70.20;;;;;;5033753;28;19957;-81
2023/04/14 12:51:57;;;;;;;;;;;21.50;69.40;;;;;;5025084;28;19929;-81
2023/04/14 12:54:25;;;;;;;;;;;21.40;67.20;;;;;;5029189;28;19929;-81
2023/04/14 12:56:52;;;;;;;;;;;21.10;64.80;;;;;;5032913;28;19925;-81
2023/04/14 12:59:19;;;;;;;;;;;20.70;65.50;;;;;;5037384;28;19987;-81
2023/04/14 13:01:46;;;;;;;;;;;20.50;65.20;;;;;;5039429;28;20113;-81
2023/04/14 13:04:13;;;;;;;;;;;20.10;65.80;;;;;;5035470;28;19952;-80
2023/04/14 13:06:40;;;;;;;;;;;19.80;66.80;;;;;;5031007;28;20462;-82
2023/04/14 13:09:06;;;;;;;;;;;19.90;68.00;;;;;;5038532;28;19925;-81
2023/04/14 13:11:35;;;;;;;;;;;19.90;66.20;;;;;;5034330;28;19940;-81
2023/04/14 13:14:01;;;;;;;;;;;20.00;68.30;;;;;;5033293;28;19936;-82
2023/04/14 13:16:28;;;;;;;;;;;20.10;68.40;;;;;;5031960;28;19969;-79
2023/04/14 13:18:57;;;;;;;;;;;20.20;69.00;;;;;;5031262;28;19929;-80
2023/04/14 13:21:24;;;;;;;;;;;20.20;68.40;;;;;;5030186;28;19995;-80
2023/04/14 13:23:51;;;;;;;;;;;20.40;68.50;;;;;;5023184;28;19936;-81
2023/04/14 13:26:18;;;;;;;;;;;20.30;67.40;;;;;;5032225;28;19937;-81
2023/04/14 13:28:48;;;;;;;;;;;20.20;67.20;;;;;;5017233;28;19926;-79
2023/04/14 13:34:06;;;;;;;;;;;20.30;68.70;;;;;;4989080;28;19937;-78
2023/04/14 13:36:33;;;;;;;;;;;20.30;67.70;;;;;;4991156;28;20355;-79
2023/04/14 13:39:01;;;;;;;;;;;20.20;67.80;;;;;;4997090;28;20414;-79
2023/04/14 13:41:28;;;;;;;;;;;20.00;67.80;;;;;;5006898;28;19929;-79
2023/04/14 13:43:57;;;;;;;;;;;19.60;67.00;;;;;;5006178;28;19926;-81
2023/04/14 13:46:23;;;;;;;;;;;19.60;67.10;;;;;;4993765;28;19937;-80
2023/04/14 13:48:50;;;;;;;;;;;19.10;67.20;;;;;;4997197;28;19926;-80
2023/04/14 13:51:17;;;;;;;;;;;18.80;67.40;;;;;;4992361;28;19930;-82
2023/04/14 13:53:43;;;;;;;;;;;18.60;67.80;;;;;;5000399;28;19933;-80
2023/04/14 13:56:10;;;;;;;;;;;18.50;67.90;;;;;;4998356;28;19925;-80
2023/04/14 13:58:37;;;;;;;;;;;18.30;67.90;;;;;;4996870;28;19930;-80
2023/04/14 14:01:12;;;;;;;;;;;18.20;68.80;;;;;;4992479;28;19930;-81
2023/04/14 14:03:39;;;;;;;;;;;18.00;68.70;;;;;;5001746;28;19934;-80
2023/04/14 14:06:06;;;;;;;;;;;17.90;69.00;;;;;;5002045;28;19937;-81
2023/04/14 14:08:36;;;;;;;;;;;17.80;68.50;;;;;;5013637;28;19914;-79
2023/04/14 14:11:03;;;;;;;;;;;17.60;68.00;;;;;;5013245;28;19929;-79
2023/04/14 14:13:30;;;;;;;;;;;17.60;68.50;;;;;;5014046;28;19921;-81
2023/04/14 14:15:57;;;;;;;;;;;17.70;68.70;;;;;;5014402;28;19929;-79
2023/04/14 14:18:25;;;;;;;;;;;17.80;69.10;;;;;;5008529;28;19941;-81
2023/04/14 14:20:51;;;;;;;;;;;18.00;69.20;;;;;;4998527;28;19926;-80
2023/04/14 14:23:18;;;;;;;;;;;18.30;69.20;;;;;;4992581;28;19929;-79
2023/04/14 14:25:45;;;;;;;;;;;18.50;69.20;;;;;;4989690;28;19939;-80
2023/04/14 14:28:12;;;;;;;;;;;18.80;68.30;;;;;;4979062;28;19973;-80
2023/04/14 14:30:39;;;;;;;;;;;18.80;68.30;;;;;;4995503;28;19929;-81
2023/04/14 14:33:06;;;;;;;;;;;19.00;68.40;;;;;;4995107;28;19996;-79